sensor_id;sensor_type;location;lat;lon;timestamp;temperature;humidity
9772;DHT22;4925;52.588;13.370;2024-02-23T00:01:28;11.30;99.90
9772;DHT22;4925;52.588;13.370;2024-02-23T00:03:54;11.20;99.90
9772;DHT22;4925;52.588;13.370;2024-02-23T00:06:21;11.20;99.90
9772;DHT22;4925;52.588;13.370;2024-02-23T00:08:53;11.20;99.90
9772;DHT22;4925;52.588;13.370;2024-02-23T00:11:23;11.20;99.90
9772;DHT22;4925;52.588;13.370;2024-02-23T00:13:49;11.20;99.90
9772;DHT22;4925;52.588;13.370;2024-02-23T00:16:15;11.30;99.90
9772;DHT22;4925;52.588;13.370;2024-02-23T00:18:41;11.30;99.90
9772;DHT22;4925;52.588;13.370;2024-02-23T00:21:10;11.30;99.90
9772;DHT22;4925;52.588;13.370;2024-02-23T00:23:36;11.40;99.90
9772;DHT22;4925;52.588;13.370;2024-02-23T00:26:03;11.40;99.90
9772;DHT22;4925;52.588;13.370;2024-02-23T00:28:29;11.40;99.90
9772;DHT22;4925;52.588;13.370;2024-02-23T00:30:56;11.50;99.90
9772;DHT22;4925;52.588;13.370;2024-02-23T00:33:23;11.50;99.90
9772;DHT22;4925;52.588;13.370;2024-02-23T00:35:51;11.50;99.90
9772;DHT22;4925;52.588;13.370;2024-02-23T00:38:19;11.50;99.90
9772;DHT22;4925;52.588;13.370;2024-02-23T00:40:46;11.50;99.90
9772;DHT22;4925;52.588;13.370;2024-02-23T00:43:12;11.50;99.90
9772;DHT22;4925;52.588;13.370;2024-02-23T00:45:38;11.50;99.90
9772;DHT22;4925;52.588;13.370;2024-02-23T00:48:03;11.50;99.90
9772;DHT22;4925;52.588;13.370;2024-02-23T00:50:29;11.50;99.90
9772;DHT22;4925;52.588;13.370;2024-02-23T00:52:56;11.50;99.90
9772;DHT22;4925;52.588;13.370;2024-02-23T00:55:22;11.50;99.90
9772;DHT22;4925;52.588;13.370;2024-02-23T00:57:47;11.60;99.90
9772;DHT22;4925;52.588;13.370;2024-02-23T01:00:13;11.60;99.90
9772;DHT22;4925;52.588;13.370;2024-02-23T01:02:39;11.50;99.90
9772;DHT22;4925;52.588;13.370;2024-02-23T01:05:06;11.50;99.90
9772;DHT22;4925;52.588;13.370;2024-02-23T01:07:31;11.50;99.90
9772;DHT22;4925;52.588;13.370;2024-02-23T01:09:57;11.50;99.90
9772;DHT22;4925;52.588;13.370;2024-02-23T01:12:24;11.50;99.90
9772;DHT22;4925;52.588;13.370;2024-02-23T01:14:50;11.50;99.90
9772;DHT22;4925;52.588;13.370;2024-02-23T01:17:15;11.50;99.90
9772;DHT22;4925;52.588;13.370;2024-02-23T01:19:42;11.50;99.90
9772;DHT22;4925;52.588;13.370;2024-02-23T01:22:08;11.60;99.90
9772;DHT22;4925;52.588;13.370;2024-02-23T01:24:34;11.60;99.90
9772;DHT22;4925;52.588;13.370;2024-02-23T01:27:00;11.60;99.90
9772;DHT22;4925;52.588;13.370;2024-02-23T01:29:26;11.60;99.90
9772;DHT22;4925;52.588;13.370;2024-02-23T01:31:52;11.60;99.90
9772;DHT22;4925;52.588;13.370;2024-02-23T01:34:23;11.70;99.90
9772;DHT22;4925;52.588;13.370;2024-02-23T01:36:49;11.70;99.90
9772;DHT22;4925;52.588;13.370;2024-02-23T01:39:16;11.70;99.90
9772;DHT22;4925;52.588;13.370;2024-02-23T01:41:43;11.80;99.90
9772;DHT22;4925;52.588;13.370;2024-02-23T01:44:11;11.80;99.90
9772;DHT22;4925;52.588;13.370;2024-02-23T01:46:37;11.80;99.90
9772;DHT22;4925;52.588;13.370;2024-02-23T01:49:05;11.80;99.90
9772;DHT22;4925;52.588;13.370;2024-02-23T01:51:33;11.80;99.90
9772;DHT22;4925;52.588;13.370;2024-02-23T01:54:00;11.80;99.90
9772;DHT22;4925;52.588;13.370;2024-02-23T01:56:26;11.90;99.90
9772;DHT22;4925;52.588;13.370;2024-02-23T01:58:53;11.90;99.90
9772;DHT22;4925;52.588;13.370;2024-02-23T02:01:21;12.00;99.90
9772;DHT22;4925;52.588;13.370;2024-02-23T02:03:47;12.00;99.90
9772;DHT22;4925;52.588;13.370;2024-02-23T02:06:14;12.00;99.90
9772;DHT22;4925;52.588;13.370;2024-02-23T02:08:40;12.00;99.90
9772;DHT22;4925;52.588;13.370;2024-02-23T02:11:06;12.00;99.90
9772;DHT22;4925;52.588;13.370;2024-02-23T02:13:32;12.00;99.90
9772;DHT22;4925;52.588;13.370;2024-02-23T02:16:01;12.00;99.90
9772;DHT22;4925;52.588;13.370;2024-02-23T02:18:27;12.00;99.90
9772;DHT22;4925;52.588;13.370;2024-02-23T02:20:57;11.90;99.90
9772;DHT22;4925;52.588;13.370;2024-02-23T02:23:25;11.90;99.90
9772;DHT22;4925;52.588;13.370;2024-02-23T02:25:58;11.90;99.90
9772;DHT22;4925;52.588;13.370;2024-02-23T02:28:25;11.90;99.90
9772;DHT22;4925;52.588;13.370;2024-02-23T02:30:52;11.80;99.90
9772;DHT22;4925;52.588;13.370;2024-02-23T02:33:21;11.70;99.90
9772;DHT22;4925;52.588;13.370;2024-02-23T02:35:47;11.70;99.90
9772;DHT22;4925;52.588;13.370;2024-02-23T02:38:13;11.50;99.90
9772;DHT22;4925;52.588;13.370;2024-02-23T02:40:41;11.40;99.40
9772;DHT22;4925;52.588;13.370;2024-02-23T02:43:08;11.40;99.30
9772;DHT22;4925;52.588;13.370;2024-02-23T02:45:34;11.30;96.10
9772;DHT22;4925;52.588;13.370;2024-02-23T02:48:04;11.20;94.50
9772;DHT22;4925;52.588;13.370;2024-02-23T02:50:30;11.10;95.60
9772;DHT22;4925;52.588;13.370;2024-02-23T02:52:56;11.00;91.50
9772;DHT22;4925;52.588;13.370;2024-02-23T02:55:21;10.90;91.40
9772;DHT22;4925;52.588;13.370;2024-02-23T02:57:47;10.90;92.00
9772;DHT22;4925;52.588;13.370;2024-02-23T03:00:13;10.80;92.70
9772;DHT22;4925;52.588;13.370;2024-02-23T03:02:39;10.80;93.00
9772;DHT22;4925;52.588;13.370;2024-02-23T03:05:05;10.70;90.90
9772;DHT22;4925;52.588;13.370;2024-02-23T03:07:31;10.70;93.30
9772;DHT22;4925;52.588;13.370;2024-02-23T03:09:57;10.60;94.30
9772;DHT22;4925;52.588;13.370;2024-02-23T03:12:23;10.50;94.40
9772;DHT22;4925;52.588;13.370;2024-02-23T03:14:49;10.50;96.20
9772;DHT22;4925;52.588;13.370;2024-02-23T03:17:15;10.50;93.50
9772;DHT22;4925;52.588;13.370;2024-02-23T03:19:40;10.50;96.60
9772;DHT22;4925;52.588;13.370;2024-02-23T03:22:07;10.40;97.50
9772;DHT22;4925;52.588;13.370;2024-02-23T03:24:33;10.40;97.40
9772;DHT22;4925;52.588;13.370;2024-02-23T03:27:00;10.30;96.60
9772;DHT22;4925;52.588;13.370;2024-02-23T03:29:26;10.30;96.60
9772;DHT22;4925;52.588;13.370;2024-02-23T03:31:55;10.30;97.80
9772;DHT22;4925;52.588;13.370;2024-02-23T03:34:21;10.30;98.40
9772;DHT22;4925;52.588;13.370;2024-02-23T03:36:46;10.30;97.10
9772;DHT22;4925;52.588;13.370;2024-02-23T03:39:13;10.30;98.00
9772;DHT22;4925;52.588;13.370;2024-02-23T03:41:39;10.20;97.90
9772;DHT22;4925;52.588;13.370;2024-02-23T03:44:04;10.20;97.70
9772;DHT22;4925;52.588;13.370;2024-02-23T03:46:30;10.20;95.60
9772;DHT22;4925;52.588;13.370;2024-02-23T03:48:56;10.20;96.30
9772;DHT22;4925;52.588;13.370;2024-02-23T03:51:23;10.10;95.00
9772;DHT22;4925;52.588;13.370;2024-02-23T03:53:49;10.10;93.90
9772;DHT22;4925;52.588;13.370;2024-02-23T03:56:16;10.20;93.60
9772;DHT22;4925;52.588;13.370;2024-02-23T03:58:42;10.10;91.80
9772;DHT22;4925;52.588;13.370;2024-02-23T04:01:08;10.00;88.90
9772;DHT22;4925;52.588;13.370;2024-02-23T04:03:37;10.10;93.50
9772;DHT22;4925;52.588;13.370;2024-02-23T04:06:03;10.10;91.40
9772;DHT22;4925;52.588;13.370;2024-02-23T04:08:29;10.10;92.20
9772;DHT22;4925;52.588;13.370;2024-02-23T04:10:54;10.00;92.30
9772;DHT22;4925;52.588;13.370;2024-02-23T04:13:21;10.10;92.20
9772;DHT22;4925;52.588;13.370;2024-02-23T04:15:46;10.10;93.30
9772;DHT22;4925;52.588;13.370;2024-02-23T04:18:14;10.00;92.60
9772;DHT22;4925;52.588;13.370;2024-02-23T04:20:39;10.00;92.60
9772;DHT22;4925;52.588;13.370;2024-02-23T04:23:05;10.00;93.30
9772;DHT22;4925;52.588;13.370;2024-02-23T04:25:31;10.00;87.00
9772;DHT22;4925;52.588;13.370;2024-02-23T04:27:56;10.00;88.70
9772;DHT22;4925;52.588;13.370;2024-02-23T04:30:22;9.90;90.00
9772;DHT22;4925;52.588;13.370;2024-02-23T04:32:48;9.90;90.80
9772;DHT22;4925;52.588;13.370;2024-02-23T04:35:14;9.90;90.80
9772;DHT22;4925;52.588;13.370;2024-02-23T04:37:44;9.90;90.80
9772;DHT22;4925;52.588;13.370;2024-02-23T04:40:10;9.80;90.50
9772;DHT22;4925;52.588;13.370;2024-02-23T04:42:37;9.80;88.40
9772;DHT22;4925;52.588;13.370;2024-02-23T04:45:03;9.70;82.20
9772;DHT22;4925;52.588;13.370;2024-02-23T04:47:29;9.70;82.00
9772;DHT22;4925;52.588;13.370;2024-02-23T04:49:56;9.70;83.90
9772;DHT22;4925;52.588;13.370;2024-02-23T04:52:23;9.70;83.30
9772;DHT22;4925;52.588;13.370;2024-02-23T04:54:49;9.60;83.00
9772;DHT22;4925;52.588;13.370;2024-02-23T04:57:15;9.60;82.70
9772;DHT22;4925;52.588;13.370;2024-02-23T04:59:40;9.50;84.00
9772;DHT22;4925;52.588;13.370;2024-02-23T05:02:06;9.50;84.00
9772;DHT22;4925;52.588;13.370;2024-02-23T05:04:31;9.50;88.20
9772;DHT22;4925;52.588;13.370;2024-02-23T05:06:58;9.50;89.20
9772;DHT22;4925;52.588;13.370;2024-02-23T05:09:24;9.40;90.20
9772;DHT22;4925;52.588;13.370;2024-02-23T05:11:50;9.40;82.50
9772;DHT22;4925;52.588;13.370;2024-02-23T05:14:16;9.30;78.10
9772;DHT22;4925;52.588;13.370;2024-02-23T05:16:43;9.30;73.10
9772;DHT22;4925;52.588;13.370;2024-02-23T05:19:09;9.20;72.80
9772;DHT22;4925;52.588;13.370;2024-02-23T05:21:34;9.10;73.80
9772;DHT22;4925;52.588;13.370;2024-02-23T05:24:00;9.00;75.00
9772;DHT22;4925;52.588;13.370;2024-02-23T05:26:26;9.00;76.90
9772;DHT22;4925;52.588;13.370;2024-02-23T05:28:52;8.90;77.00
9772;DHT22;4925;52.588;13.370;2024-02-23T05:31:19;8.80;79.60
9772;DHT22;4925;52.588;13.370;2024-02-23T05:33:45;8.80;82.40
9772;DHT22;4925;52.588;13.370;2024-02-23T05:36:11;8.80;85.40
9772;DHT22;4925;52.588;13.370;2024-02-23T05:38:36;8.70;86.40
9772;DHT22;4925;52.588;13.370;2024-02-23T05:41:02;8.70;90.30
9772;DHT22;4925;52.588;13.370;2024-02-23T05:43:28;8.60;91.30
9772;DHT22;4925;52.588;13.370;2024-02-23T05:45:53;8.60;91.70
9772;DHT22;4925;52.588;13.370;2024-02-23T05:48:23;8.50;93.50
9772;DHT22;4925;52.588;13.370;2024-02-23T05:50:49;8.50;93.80
9772;DHT22;4925;52.588;13.370;2024-02-23T05:53:14;8.50;96.50
9772;DHT22;4925;52.588;13.370;2024-02-23T05:55:40;8.40;96.10
9772;DHT22;4925;52.588;13.370;2024-02-23T05:58:06;8.40;98.50
9772;DHT22;4925;52.588;13.370;2024-02-23T06:00:33;8.40;99.90
9772;DHT22;4925;52.588;13.370;2024-02-23T06:02:59;8.30;99.90
9772;DHT22;4925;52.588;13.370;2024-02-23T06:05:25;8.20;99.90
9772;DHT22;4925;52.588;13.370;2024-02-23T06:07:51;8.10;99.90
9772;DHT22;4925;52.588;13.370;2024-02-23T06:10:16;8.10;99.90
9772;DHT22;4925;52.588;13.370;2024-02-23T06:12:43;8.10;99.90
9772;DHT22;4925;52.588;13.370;2024-02-23T06:15:10;8.10;99.90
9772;DHT22;4925;52.588;13.370;2024-02-23T06:17:37;8.10;99.90
9772;DHT22;4925;52.588;13.370;2024-02-23T06:20:04;8.00;99.90
9772;DHT22;4925;52.588;13.370;2024-02-23T06:22:30;8.00;99.90
9772;DHT22;4925;52.588;13.370;2024-02-23T06:24:58;8.10;99.90
9772;DHT22;4925;52.588;13.370;2024-02-23T06:27:23;8.20;99.90
9772;DHT22;4925;52.588;13.370;2024-02-23T06:29:50;8.10;99.90
9772;DHT22;4925;52.588;13.370;2024-02-23T06:32:16;8.10;99.90
9772;DHT22;4925;52.588;13.370;2024-02-23T06:34:42;8.00;99.90
9772;DHT22;4925;52.588;13.370;2024-02-23T06:37:07;8.00;99.90
9772;DHT22;4925;52.588;13.370;2024-02-23T06:39:34;8.00;99.90
9772;DHT22;4925;52.588;13.370;2024-02-23T06:42:01;7.90;99.90
9772;DHT22;4925;52.588;13.370;2024-02-23T06:44:30;7.90;99.90
9772;DHT22;4925;52.588;13.370;2024-02-23T06:46:56;7.90;99.90
9772;DHT22;4925;52.588;13.370;2024-02-23T06:49:21;7.90;99.90
9772;DHT22;4925;52.588;13.370;2024-02-23T06:51:47;7.90;99.90
9772;DHT22;4925;52.588;13.370;2024-02-23T06:54:13;8.00;99.90
9772;DHT22;4925;52.588;13.370;2024-02-23T06:56:38;8.10;99.90
9772;DHT22;4925;52.588;13.370;2024-02-23T06:59:05;8.10;99.90
9772;DHT22;4925;52.588;13.370;2024-02-23T07:01:31;8.20;99.90
9772;DHT22;4925;52.588;13.370;2024-02-23T07:03:56;8.20;99.90
9772;DHT22;4925;52.588;13.370;2024-02-23T07:06:22;8.30;99.90
9772;DHT22;4925;52.588;13.370;2024-02-23T07:08:49;8.20;99.90
9772;DHT22;4925;52.588;13.370;2024-02-23T07:11:14;8.30;99.90
9772;DHT22;4925;52.588;13.370;2024-02-23T07:13:43;8.30;99.90
9772;DHT22;4925;52.588;13.370;2024-02-23T07:16:09;8.30;99.90
9772;DHT22;4925;52.588;13.370;2024-02-23T07:18:34;8.30;99.90
9772;DHT22;4925;52.588;13.370;2024-02-23T07:21:00;8.20;99.90
9772;DHT22;4925;52.588;13.370;2024-02-23T07:23:27;8.10;99.90
9772;DHT22;4925;52.588;13.370;2024-02-23T07:25:52;8.10;99.90
9772;DHT22;4925;52.588;13.370;2024-02-23T07:28:19;8.10;99.90
9772;DHT22;4925;52.588;13.370;2024-02-23T07:30:45;8.20;99.90
9772;DHT22;4925;52.588;13.370;2024-02-23T07:33:12;8.20;99.90
9772;DHT22;4925;52.588;13.370;2024-02-23T07:35:37;8.20;99.90
9772;DHT22;4925;52.588;13.370;2024-02-23T07:38:03;8.20;99.90
9772;DHT22;4925;52.588;13.370;2024-02-23T07:40:29;8.30;99.90
9772;DHT22;4925;52.588;13.370;2024-02-23T07:42:57;8.30;99.90
9772;DHT22;4925;52.588;13.370;2024-02-23T07:45:24;8.30;99.90
9772;DHT22;4925;52.588;13.370;2024-02-23T07:47:51;8.40;98.30
9772;DHT22;4925;52.588;13.370;2024-02-23T07:50:16;8.30;97.00
9772;DHT22;4925;52.588;13.370;2024-02-23T07:52:44;8.30;98.10
9772;DHT22;4925;52.588;13.370;2024-02-23T07:55:09;8.40;97.50
9772;DHT22;4925;52.588;13.370;2024-02-23T07:57:35;8.40;97.20
9772;DHT22;4925;52.588;13.370;2024-02-23T08:00:01;8.30;94.90
9772;DHT22;4925;52.588;13.370;2024-02-23T08:02:28;8.40;95.80
9772;DHT22;4925;52.588;13.370;2024-02-23T08:04:56;8.50;94.30
9772;DHT22;4925;52.588;13.370;2024-02-23T08:07:22;8.50;95.50
9772;DHT22;4925;52.588;13.370;2024-02-23T08:09:48;8.50;94.80
9772;DHT22;4925;52.588;13.370;2024-02-23T08:12:15;8.50;94.50
9772;DHT22;4925;52.588;13.370;2024-02-23T08:14:41;8.50;94.40
9772;DHT22;4925;52.588;13.370;2024-02-23T08:17:07;8.50;95.10
9772;DHT22;4925;52.588;13.370;2024-02-23T08:19:33;8.50;94.80
9772;DHT22;4925;52.588;13.370;2024-02-23T08:22:02;8.60;94.30
9772;DHT22;4925;52.588;13.370;2024-02-23T08:24:27;8.70;94.50
9772;DHT22;4925;52.588;13.370;2024-02-23T08:26:53;8.80;95.10
9772;DHT22;4925;52.588;13.370;2024-02-23T08:29:19;8.80;94.30
9772;DHT22;4925;52.588;13.370;2024-02-23T08:31:45;8.90;93.30
9772;DHT22;4925;52.588;13.370;2024-02-23T08:34:11;8.80;94.00
9772;DHT22;4925;52.588;13.370;2024-02-23T08:36:37;8.80;93.20
9772;DHT22;4925;52.588;13.370;2024-02-23T08:39:03;8.90;95.90
9772;DHT22;4925;52.588;13.370;2024-02-23T08:41:29;9.00;96.20
9772;DHT22;4925;52.588;13.370;2024-02-23T08:43:57;9.10;94.50
9772;DHT22;4925;52.588;13.370;2024-02-23T08:46:24;8.90;93.00
9772;DHT22;4925;52.588;13.370;2024-02-23T08:48:51;8.90;93.30
9772;DHT22;4925;52.588;13.370;2024-02-23T08:51:16;8.90;93.30
9772;DHT22;4925;52.588;13.370;2024-02-23T08:53:42;9.00;93.50
9772;DHT22;4925;52.588;13.370;2024-02-23T08:56:08;9.10;92.80
9772;DHT22;4925;52.588;13.370;2024-02-23T08:58:35;9.20;91.00
9772;DHT22;4925;52.588;13.370;2024-02-23T09:01:00;9.10;87.00
9772;DHT22;4925;52.588;13.370;2024-02-23T09:03:26;9.10;89.40
9772;DHT22;4925;52.588;13.370;2024-02-23T09:05:53;9.20;88.90
9772;DHT22;4925;52.588;13.370;2024-02-23T09:08:19;9.30;80.80
9772;DHT22;4925;52.588;13.370;2024-02-23T09:10:44;9.40;83.50
9772;DHT22;4925;52.588;13.370;2024-02-23T09:13:11;9.30;81.20
9772;DHT22;4925;52.588;13.370;2024-02-23T09:15:36;9.40;80.60
9772;DHT22;4925;52.588;13.370;2024-02-23T09:18:02;9.40;81.20
9772;DHT22;4925;52.588;13.370;2024-02-23T09:20:28;9.40;81.50
9772;DHT22;4925;52.588;13.370;2024-02-23T09:22:54;9.40;77.70
9772;DHT22;4925;52.588;13.370;2024-02-23T09:25:21;9.30;77.40
9772;DHT22;4925;52.588;13.370;2024-02-23T09:27:47;9.30;73.60
9772;DHT22;4925;52.588;13.370;2024-02-23T09:30:13;9.30;72.00
9772;DHT22;4925;52.588;13.370;2024-02-23T09:32:39;9.30;72.40
9772;DHT22;4925;52.588;13.370;2024-02-23T09:35:05;9.30;70.50
9772;DHT22;4925;52.588;13.370;2024-02-23T09:37:32;9.40;67.50
9772;DHT22;4925;52.588;13.370;2024-02-23T09:39:58;9.50;60.00
9772;DHT22;4925;52.588;13.370;2024-02-23T09:42:23;9.50;55.60
9772;DHT22;4925;52.588;13.370;2024-02-23T09:44:59;9.60;57.10
9772;DHT22;4925;52.588;13.370;2024-02-23T09:47:27;9.70;56.30
9772;DHT22;4925;52.588;13.370;2024-02-23T09:49:57;9.50;51.40
9772;DHT22;4925;52.588;13.370;2024-02-23T09:52:23;9.60;53.50
9772;DHT22;4925;52.588;13.370;2024-02-23T09:54:49;9.70;53.00
9772;DHT22;4925;52.588;13.370;2024-02-23T09:57:16;9.70;48.80
9772;DHT22;4925;52.588;13.370;2024-02-23T09:59:43;9.80;49.10
9772;DHT22;4925;52.588;13.370;2024-02-23T10:02:10;9.70;46.20
9772;DHT22;4925;52.588;13.370;2024-02-23T10:04:40;9.60;47.50
9772;DHT22;4925;52.588;13.370;2024-02-23T10:07:07;9.50;46.70
9772;DHT22;4925;52.588;13.370;2024-02-23T10:09:32;9.50;47.70
9772;DHT22;4925;52.588;13.370;2024-02-23T10:12:00;9.50;48.00
9772;DHT22;4925;52.588;13.370;2024-02-23T10:14:26;9.50;47.90
9772;DHT22;4925;52.588;13.370;2024-02-23T10:16:52;9.50;47.80
9772;DHT22;4925;52.588;13.370;2024-02-23T10:19:21;9.60;48.90
9772;DHT22;4925;52.588;13.370;2024-02-23T10:21:47;9.50;48.60
9772;DHT22;4925;52.588;13.370;2024-02-23T10:24:15;9.60;51.80
9772;DHT22;4925;52.588;13.370;2024-02-23T10:26:42;9.60;47.20
9772;DHT22;4925;52.588;13.370;2024-02-23T10:29:08;9.60;50.50
9772;DHT22;4925;52.588;13.370;2024-02-23T10:31:36;9.80;51.70
9772;DHT22;4925;52.588;13.370;2024-02-23T10:34:09;9.70;51.30
9772;DHT22;4925;52.588;13.370;2024-02-23T10:36:41;9.70;45.30
9772;DHT22;4925;52.588;13.370;2024-02-23T10:39:15;9.60;45.90
9772;DHT22;4925;52.588;13.370;2024-02-23T10:41:50;9.80;48.70
9772;DHT22;4925;52.588;13.370;2024-02-23T10:44:20;9.90;45.90
9772;DHT22;4925;52.588;13.370;2024-02-23T10:46:46;10.00;50.50
9772;DHT22;4925;52.588;13.370;2024-02-23T10:49:15;10.00;45.50
9772;DHT22;4925;52.588;13.370;2024-02-23T10:51:42;10.20;46.20
9772;DHT22;4925;52.588;13.370;2024-02-23T10:54:09;10.20;45.50
9772;DHT22;4925;52.588;13.370;2024-02-23T10:56:35;10.20;42.60
9772;DHT22;4925;52.588;13.370;2024-02-23T10:59:01;9.90;33.80
9772;DHT22;4925;52.588;13.370;2024-02-23T11:01:28;9.90;35.80
9772;DHT22;4925;52.588;13.370;2024-02-23T11:03:54;9.80;38.70
9772;DHT22;4925;52.588;13.370;2024-02-23T11:06:27;10.00;37.70
9772;DHT22;4925;52.588;13.370;2024-02-23T11:08:53;10.00;36.90
9772;DHT22;4925;52.588;13.370;2024-02-23T11:11:19;10.10;36.40
9772;DHT22;4925;52.588;13.370;2024-02-23T11:13:45;10.20;34.90
9772;DHT22;4925;52.588;13.370;2024-02-23T11:16:22;10.30;34.70
9772;DHT22;4925;52.588;13.370;2024-02-23T11:19:04;10.20;28.60
9772;DHT22;4925;52.588;13.370;2024-02-23T11:21:35;10.10;33.10
9772;DHT22;4925;52.588;13.370;2024-02-23T11:24:06;10.00;36.90
9772;DHT22;4925;52.588;13.370;2024-02-23T11:26:37;10.00;38.20
9772;DHT22;4925;52.588;13.370;2024-02-23T11:29:10;10.00;34.50
9772;DHT22;4925;52.588;13.370;2024-02-23T11:31:45;10.10;34.20
9772;DHT22;4925;52.588;13.370;2024-02-23T11:34:13;10.10;32.20
9772;DHT22;4925;52.588;13.370;2024-02-23T11:36:50;10.20;35.50
9772;DHT22;4925;52.588;13.370;2024-02-23T11:39:17;10.20;35.00
9772;DHT22;4925;52.588;13.370;2024-02-23T11:41:45;10.10;31.50
9772;DHT22;4925;52.588;13.370;2024-02-23T11:44:13;10.20;33.90
9772;DHT22;4925;52.588;13.370;2024-02-23T11:46:39;10.20;30.80
9772;DHT22;4925;52.588;13.370;2024-02-23T11:49:04;10.20;31.10
9772;DHT22;4925;52.588;13.370;2024-02-23T11:51:31;10.20;26.70
9772;DHT22;4925;52.588;13.370;2024-02-23T11:53:57;10.00;28.70
9772;DHT22;4925;52.588;13.370;2024-02-23T11:56:23;10.00;29.10
9772;DHT22;4925;52.588;13.370;2024-02-23T11:58:49;10.10;31.10
9772;DHT22;4925;52.588;13.370;2024-02-23T12:01:16;10.20;28.70
9772;DHT22;4925;52.588;13.370;2024-02-23T12:03:42;10.40;30.20
9772;DHT22;4925;52.588;13.370;2024-02-23T12:06:10;10.40;28.70
9772;DHT22;4925;52.588;13.370;2024-02-23T12:08:36;10.50;27.40
9772;DHT22;4925;52.588;13.370;2024-02-23T12:11:05;10.40;27.80
9772;DHT22;4925;52.588;13.370;2024-02-23T12:13:37;10.40;27.50
9772;DHT22;4925;52.588;13.370;2024-02-23T12:16:06;10.40;29.70
9772;DHT22;4925;52.588;13.370;2024-02-23T12:18:35;10.60;31.20
9772;DHT22;4925;52.588;13.370;2024-02-23T12:21:08;10.70;29.60
9772;DHT22;4925;52.588;13.370;2024-02-23T12:23:44;10.80;28.00
9772;DHT22;4925;52.588;13.370;2024-02-23T12:26:12;10.80;27.10
9772;DHT22;4925;52.588;13.370;2024-02-23T12:28:39;10.90;27.60
9772;DHT22;4925;52.588;13.370;2024-02-23T12:31:05;10.90;24.40
9772;DHT22;4925;52.588;13.370;2024-02-23T12:33:35;10.90;24.10
9772;DHT22;4925;52.588;13.370;2024-02-23T12:36:02;10.90;25.80
9772;DHT22;4925;52.588;13.370;2024-02-23T12:38:29;10.80;23.10
9772;DHT22;4925;52.588;13.370;2024-02-23T12:40:57;10.70;24.70
9772;DHT22;4925;52.588;13.370;2024-02-23T12:43:23;10.60;25.40
9772;DHT22;4925;52.588;13.370;2024-02-23T12:45:56;10.60;28.60
9772;DHT22;4925;52.588;13.370;2024-02-23T12:48:23;10.50;30.00
9772;DHT22;4925;52.588;13.370;2024-02-23T12:50:49;10.60;31.60
9772;DHT22;4925;52.588;13.370;2024-02-23T12:56:06;10.50;29.90
9772;DHT22;4925;52.588;13.370;2024-02-23T12:58:37;10.40;30.00
9772;DHT22;4925;52.588;13.370;2024-02-23T13:01:02;10.60;34.00
9772;DHT22;4925;52.588;13.370;2024-02-23T13:03:29;10.60;28.10
9772;DHT22;4925;52.588;13.370;2024-02-23T13:05:55;10.40;28.40
9772;DHT22;4925;52.588;13.370;2024-02-23T13:08:22;10.30;28.50
9772;DHT22;4925;52.588;13.370;2024-02-23T13:10:48;10.20;29.70
9772;DHT22;4925;52.588;13.370;2024-02-23T13:13:14;10.20;30.60
9772;DHT22;4925;52.588;13.370;2024-02-23T13:15:44;10.20;32.20
9772;DHT22;4925;52.588;13.370;2024-02-23T13:18:09;10.30;30.90
9772;DHT22;4925;52.588;13.370;2024-02-23T13:20:36;10.30;28.80
9772;DHT22;4925;52.588;13.370;2024-02-23T13:23:02;10.30;30.90
9772;DHT22;4925;52.588;13.370;2024-02-23T13:25:28;10.40;30.70
9772;DHT22;4925;52.588;13.370;2024-02-23T13:27:54;10.50;31.30
9772;DHT22;4925;52.588;13.370;2024-02-23T13:30:21;10.50;32.00
9772;DHT22;4925;52.588;13.370;2024-02-23T13:32:48;10.50;32.40
9772;DHT22;4925;52.588;13.370;2024-02-23T13:35:14;10.50;32.20
9772;DHT22;4925;52.588;13.370;2024-02-23T13:37:41;10.40;33.80
9772;DHT22;4925;52.588;13.370;2024-02-23T13:40:08;10.50;35.80
9772;DHT22;4925;52.588;13.370;2024-02-23T13:42:35;10.60;36.40
9772;DHT22;4925;52.588;13.370;2024-02-23T13:45:01;10.50;36.10
9772;DHT22;4925;52.588;13.370;2024-02-23T13:47:27;10.50;36.50
9772;DHT22;4925;52.588;13.370;2024-02-23T13:49:54;10.50;36.40
9772;DHT22;4925;52.588;13.370;2024-02-23T13:52:19;10.50;35.60
9772;DHT22;4925;52.588;13.370;2024-02-23T13:54:45;10.40;34.40
9772;DHT22;4925;52.588;13.370;2024-02-23T13:57:10;10.40;33.40
9772;DHT22;4925;52.588;13.370;2024-02-23T13:59:36;10.40;35.40
9772;DHT22;4925;52.588;13.370;2024-02-23T14:02:02;10.30;34.70
9772;DHT22;4925;52.588;13.370;2024-02-23T14:04:28;10.30;35.20
9772;DHT22;4925;52.588;13.370;2024-02-23T14:06:53;10.20;36.10
9772;DHT22;4925;52.588;13.370;2024-02-23T14:09:19;10.20;36.80
9772;DHT22;4925;52.588;13.370;2024-02-23T14:11:45;10.20;36.70
9772;DHT22;4925;52.588;13.370;2024-02-23T14:14:11;10.30;38.10
9772;DHT22;4925;52.588;13.370;2024-02-23T14:16:37;10.30;39.20
9772;DHT22;4925;52.588;13.370;2024-02-23T14:19:02;10.20;39.30
9772;DHT22;4925;52.588;13.370;2024-02-23T14:21:28;10.30;40.80
9772;DHT22;4925;52.588;13.370;2024-02-23T14:23:54;10.20;38.90
9772;DHT22;4925;52.588;13.370;2024-02-23T14:26:19;10.30;38.50
9772;DHT22;4925;52.588;13.370;2024-02-23T14:28:45;10.20;39.50
9772;DHT22;4925;52.588;13.370;2024-02-23T14:31:10;10.20;39.90
9772;DHT22;4925;52.588;13.370;2024-02-23T14:33:36;10.20;37.80
9772;DHT22;4925;52.588;13.370;2024-02-23T14:36:02;10.10;36.40
9772;DHT22;4925;52.588;13.370;2024-02-23T14:38:28;10.00;37.30
9772;DHT22;4925;52.588;13.370;2024-02-23T14:40:54;10.00;37.00
9772;DHT22;4925;52.588;13.370;2024-02-23T14:43:25;9.80;39.40
9772;DHT22;4925;52.588;13.370;2024-02-23T14:45:51;9.80;35.70
9772;DHT22;4925;52.588;13.370;2024-02-23T14:48:18;9.80;36.10
9772;DHT22;4925;52.588;13.370;2024-02-23T14:50:44;9.70;37.60
9772;DHT22;4925;52.588;13.370;2024-02-23T14:53:09;9.90;39.90
9772;DHT22;4925;52.588;13.370;2024-02-23T14:55:37;9.80;38.50
9772;DHT22;4925;52.588;13.370;2024-02-23T14:58:02;9.70;37.30
9772;DHT22;4925;52.588;13.370;2024-02-23T15:00:28;9.70;39.00
9772;DHT22;4925;52.588;13.370;2024-02-23T15:02:56;9.70;39.30
9772;DHT22;4925;52.588;13.370;2024-02-23T15:05:22;9.70;40.70
9772;DHT22;4925;52.588;13.370;2024-02-23T15:07:48;9.60;41.80
9772;DHT22;4925;52.588;13.370;2024-02-23T15:10:15;9.80;42.90
9772;DHT22;4925;52.588;13.370;2024-02-23T15:12:40;9.70;41.70
9772;DHT22;4925;52.588;13.370;2024-02-23T15:15:07;9.60;42.20
9772;DHT22;4925;52.588;13.370;2024-02-23T15:17:33;9.70;43.80
9772;DHT22;4925;52.588;13.370;2024-02-23T15:19:58;9.70;44.50
9772;DHT22;4925;52.588;13.370;2024-02-23T15:22:24;9.70;44.30
9772;DHT22;4925;52.588;13.370;2024-02-23T15:24:52;9.70;47.50
9772;DHT22;4925;52.588;13.370;2024-02-23T15:27:18;9.80;48.40
9772;DHT22;4925;52.588;13.370;2024-02-23T15:29:45;9.90;46.50
9772;DHT22;4925;52.588;13.370;2024-02-23T15:32:13;9.70;47.10
9772;DHT22;4925;52.588;13.370;2024-02-23T15:34:40;9.70;48.90
9772;DHT22;4925;52.588;13.370;2024-02-23T15:37:06;9.70;49.10
9772;DHT22;4925;52.588;13.370;2024-02-23T15:39:33;9.70;51.40
9772;DHT22;4925;52.588;13.370;2024-02-23T15:41:58;9.70;51.40
9772;DHT22;4925;52.588;13.370;2024-02-23T15:44:25;9.70;52.20
9772;DHT22;4925;52.588;13.370;2024-02-23T15:46:51;9.80;52.60
9772;DHT22;4925;52.588;13.370;2024-02-23T15:49:16;9.70;51.40
9772;DHT22;4925;52.588;13.370;2024-02-23T15:51:44;9.80;52.60